createdAt,value
2022-12-24T00:00:50.967Z,38.05
2022-12-24T00:01:53.662Z,45.47
2022-12-24T00:02:56.606Z,41.13
2022-12-24T00:03:59.400Z,36.28
2022-12-24T00:05:02.294Z,36.78
2022-12-24T00:06:09.862Z,35.35
2022-12-24T00:07:12.800Z,39.63
2022-12-24T00:08:15.587Z,40.22
2022-12-24T00:09:18.307Z,39.78
2022-12-24T00:10:21.029Z,32.50
2022-12-24T00:11:23.732Z,33.22
2022-12-24T00:12:26.696Z,40.67
2022-12-24T00:13:29.406Z,35.72
2022-12-24T00:14:32.267Z,35.47
2022-12-24T00:15:35.180Z,43.38
2022-12-24T00:16:38.167Z,34.85
2022-12-24T00:17:40.938Z,35.22
2022-12-24T00:18:46.658Z,39.03
2022-12-24T00:19:49.893Z,45.40
2022-12-24T00:20:53.130Z,40.00
2022-12-24T00:21:55.924Z,39.03
2022-12-24T00:22:58.610Z,42.20
2022-12-24T00:24:03.975Z,40.85
2022-12-24T00:25:07.146Z,39.17
2022-12-24T00:26:09.994Z,35.13
2022-12-24T00:27:12.722Z,33.97
2022-12-24T00:28:17.030Z,39.42
2022-12-24T00:29:19.768Z,40.28
2022-12-24T00:30:22.527Z,40.45
2022-12-24T00:31:25.550Z,36.30
2022-12-24T00:32:28.381Z,35.67
2022-12-24T00:33:31.250Z,35.83
2022-12-24T00:34:34.320Z,35.95
2022-12-24T00:35:38.749Z,35.63
2022-12-24T00:36:41.726Z,46.55
2022-12-24T00:37:48.457Z,38.90
2022-12-24T00:38:51.179Z,39.88
2022-12-24T00:39:54.129Z,40.35
2022-12-24T00:41:01.775Z,38.60
2022-12-24T00:42:04.626Z,37.33
2022-12-24T00:43:07.418Z,43.08
2022-12-24T00:44:10.433Z,41.10
2022-12-24T00:45:13.521Z,40.08
2022-12-24T00:46:16.268Z,37.75
2022-12-24T00:47:18.992Z,39.42
2022-12-24T00:48:23.359Z,40.75
2022-12-24T00:49:26.140Z,42.30
2022-12-24T00:50:28.941Z,36.58
2022-12-24T00:51:32.003Z,40.78
2022-12-24T00:52:35.051Z,42.10
2022-12-24T00:53:37.845Z,38.30
2022-12-24T00:54:40.653Z,44.35
2022-12-24T00:55:43.420Z,47.35
2022-12-24T00:56:46.338Z,37.53
2022-12-24T00:57:49.252Z,33.88
2022-12-24T00:58:52.374Z,43.85
2022-12-24T00:59:55.153Z,46.53
2022-12-24T01:00:57.990Z,41.83
2022-12-24T01:02:00.759Z,43.65
2022-12-24T01:03:04.122Z,48.75
2022-12-24T01:04:25.924Z,40.60
2022-12-24T01:05:28.789Z,39.40
2022-12-24T01:06:31.560Z,43.63
2022-12-24T01:07:34.642Z,50.15
2022-12-24T01:08:37.967Z,40.85
2022-12-24T01:09:40.675Z,42.28
2022-12-24T01:10:43.354Z,47.25
2022-12-24T01:11:46.371Z,40.80
2022-12-24T01:12:49.189Z,41.53
2022-12-24T01:13:52.160Z,38.22
2022-12-24T01:14:55.089Z,39.75
2022-12-24T01:15:58.249Z,44.33
2022-12-24T01:17:01.136Z,51.65
2022-12-24T01:18:04.084Z,50.33
2022-12-24T01:19:07.065Z,50.28
2022-12-24T01:20:15.015Z,42.97
2022-12-24T01:21:17.908Z,46.85
2022-12-24T01:22:20.632Z,48.85
2022-12-24T01:23:23.343Z,54.17
2022-12-24T01:24:26.639Z,45.58
2022-12-24T01:25:29.553Z,50.72
2022-12-24T01:26:32.300Z,62.15
2022-12-24T01:27:35.489Z,60.80
2022-12-24T01:28:38.351Z,56.53
2022-12-24T01:29:41.024Z,55.08
2022-12-24T01:30:44.147Z,65.30
2022-12-24T01:31:47.034Z,64.93
2022-12-24T01:32:50.069Z,70.18
2022-12-24T01:33:52.797Z,61.85
2022-12-24T01:34:55.618Z,47.38
2022-12-24T01:35:58.555Z,57.75
2022-12-24T01:37:01.267Z,48.83
2022-12-24T01:38:04.083Z,43.65
2022-12-24T01:39:06.844Z,51.03
2022-12-24T01:40:35.171Z,47.25
2022-12-24T01:41:56.748Z,47.83
2022-12-24T01:43:17.952Z,49.00
2022-12-24T01:44:22.385Z,44.35
2022-12-24T01:45:52.263Z,44.92
2022-12-24T01:47:20.685Z,43.10
2022-12-24T01:48:36.552Z,44.15
2022-12-24T01:49:42.868Z,44.58
2022-12-24T01:50:45.961Z,41.00
2022-12-24T01:51:55.199Z,43.20
2022-12-24T01:52:58.212Z,41.15
2022-12-24T01:54:10.819Z,48.40
2022-12-24T01:55:16.363Z,42.28
2022-12-24T01:56:20.087Z,40.80
2022-12-24T01:57:29.145Z,48.78
2022-12-24T01:58:33.265Z,46.08
2022-12-24T01:59:36.866Z,42.08
2022-12-24T02:00:39.670Z,40.45
2022-12-24T02:01:42.566Z,41.53
2022-12-24T02:02:47.480Z,45.90
2022-12-24T02:03:50.685Z,44.30
2022-12-24T02:05:02.260Z,44.10
2022-12-24T02:06:05.708Z,44.30
2022-12-24T02:07:09.893Z,36.75
2022-12-24T02:08:13.371Z,40.88
2022-12-24T02:09:16.130Z,50.45
2022-12-24T02:10:19.395Z,39.47
2022-12-24T02:11:22.966Z,37.58
2022-12-24T02:12:31.121Z,39.85
2022-12-24T02:13:33.980Z,43.15
2022-12-24T02:14:37.630Z,43.70
2022-12-24T02:15:40.453Z,45.55
2022-12-24T02:17:11.404Z,38.17
2022-12-24T02:19:00.633Z,36.75
2022-12-24T02:20:27.649Z,37.90
2022-12-24T02:21:43.292Z,39.67
2022-12-24T02:23:04.690Z,39.83
2022-12-24T02:24:28.696Z,42.83
2022-12-24T02:26:28.678Z,37.45
2022-12-24T02:27:31.664Z,38.25
2022-12-24T02:28:43.378Z,43.95
2022-12-24T02:30:03.740Z,41.13
2022-12-24T02:31:12.089Z,41.90
2022-12-24T02:32:26.564Z,41.80
2022-12-24T02:34:16.780Z,46.53
2022-12-24T02:35:24.387Z,41.20
2022-12-24T02:36:34.162Z,40.20
2022-12-24T02:37:47.920Z,34.80
2022-12-24T02:39:05.224Z,36.47
2022-12-24T02:40:16.773Z,31.63
2022-12-24T02:41:26.515Z,34.53
2022-12-24T02:42:35.457Z,34.13
2022-12-24T02:43:41.225Z,31.80
2022-12-24T02:44:53.630Z,28.83
2022-12-24T02:46:01.340Z,30.73
2022-12-24T02:47:05.709Z,30.90
2022-12-24T02:48:08.776Z,29.98
2022-12-24T02:49:11.997Z,28.08
2022-12-24T02:50:18.404Z,30.90
2022-12-24T02:51:25.027Z,31.15
2022-12-24T02:52:36.518Z,30.58
2022-12-24T02:53:39.921Z,33.15
2022-12-24T02:54:42.646Z,28.38
2022-12-24T02:55:54.570Z,27.13
2022-12-24T02:57:02.753Z,31.75
2022-12-24T02:58:17.466Z,32.42
2022-12-24T02:59:40.768Z,27.25
2022-12-24T03:01:18.967Z,30.90
2022-12-24T03:03:01.706Z,29.83
2022-12-24T03:04:39.657Z,33.45
2022-12-24T03:05:51.786Z,27.85
2022-12-24T03:07:02.418Z,26.13
2022-12-24T03:08:16.347Z,29.27
2022-12-24T03:09:31.007Z,28.42
2022-12-24T03:10:36.191Z,32.15
2022-12-24T03:11:43.639Z,34.83
2022-12-24T03:12:52.534Z,28.77
2022-12-24T03:13:56.062Z,27.98
2022-12-24T03:14:59.549Z,32.08
2022-12-24T03:16:06.122Z,30.48
2022-12-24T03:17:09.568Z,35.83
2022-12-24T03:18:15.856Z,29.98
2022-12-24T03:19:19.026Z,31.33
2022-12-24T03:20:28.622Z,30.13
2022-12-24T03:21:36.335Z,33.92
2022-12-24T03:22:39.544Z,27.35
2022-12-24T03:23:43.086Z,29.77
2022-12-24T03:24:45.999Z,31.55
2022-12-24T03:25:49.326Z,30.83
2022-12-24T03:26:52.903Z,32.08
2022-12-24T03:27:57.339Z,31.20
2022-12-24T03:29:00.595Z,29.88
2022-12-24T03:30:10.412Z,29.55
2022-12-24T03:31:14.265Z,34.45
2022-12-24T03:32:32.612Z,34.95
2022-12-24T03:33:35.701Z,32.17
2022-12-24T03:34:38.443Z,30.58
2022-12-24T03:35:41.270Z,31.90
2022-12-24T03:36:44.353Z,32.38
2022-12-24T03:37:47.079Z,32.80
2022-12-24T03:38:49.785Z,33.08
2022-12-24T03:39:52.988Z,36.78
2022-12-24T03:40:55.848Z,33.25
2022-12-24T03:41:58.615Z,31.42
2022-12-24T03:43:01.455Z,39.25
2022-12-24T03:44:04.584Z,29.65
2022-12-24T03:45:07.809Z,32.85
2022-12-24T03:46:10.696Z,32.55
2022-12-24T03:47:13.618Z,37.10
2022-12-24T03:48:16.354Z,31.95
2022-12-24T03:49:19.189Z,31.50
2022-12-24T03:50:22.149Z,35.60
2022-12-24T03:51:25.763Z,36.60
2022-12-24T03:52:28.841Z,34.40
2022-12-24T03:53:31.576Z,31.55
2022-12-24T03:54:34.276Z,34.80
2022-12-24T03:55:38.126Z,31.15
2022-12-24T03:56:40.936Z,36.17
2022-12-24T03:57:43.701Z,35.22
2022-12-24T03:58:46.547Z,31.58
2022-12-24T03:59:49.289Z,34.80
2022-12-24T04:00:53.688Z,30.58
2022-12-24T04:01:56.895Z,31.75
2022-12-24T04:02:59.921Z,30.92
2022-12-24T04:04:02.720Z,29.73
2022-12-24T04:05:06.197Z,27.35
2022-12-24T04:06:10.966Z,32.42
2022-12-24T04:07:13.970Z,33.58
2022-12-24T04:08:16.753Z,30.20
2022-12-24T04:09:19.559Z,32.42
2022-12-24T04:10:22.479Z,30.48
2022-12-24T04:11:25.280Z,33.15
2022-12-24T04:12:28.252Z,32.65
2022-12-24T04:13:30.962Z,32.20
2022-12-24T04:14:33.780Z,27.25
2022-12-24T04:15:36.574Z,31.05
2022-12-24T04:16:39.487Z,32.30
2022-12-24T04:17:42.248Z,29.58
2022-12-24T04:18:45.099Z,28.90
2022-12-24T04:19:48.148Z,32.92
2022-12-24T04:20:50.929Z,33.33
2022-12-24T04:21:53.647Z,32.92
2022-12-24T04:22:56.523Z,34.35
2022-12-24T04:23:59.267Z,33.35
2022-12-24T04:25:02.092Z,36.97
2022-12-24T04:26:06.769Z,28.75
2022-12-24T04:27:09.574Z,31.83
2022-12-24T04:28:12.978Z,31.27
2022-12-24T04:29:15.712Z,32.25
2022-12-24T04:30:18.780Z,29.23
2022-12-24T04:31:21.576Z,35.10
2022-12-24T04:32:26.717Z,33.35
2022-12-24T04:33:29.943Z,30.67
2022-12-24T04:34:32.725Z,32.20
2022-12-24T04:35:42.493Z,29.23
2022-12-24T04:36:45.285Z,29.40
2022-12-24T04:37:48.097Z,31.85
2022-12-24T04:38:51.242Z,31.30
2022-12-24T04:39:54.186Z,26.52
2022-12-24T04:41:01.322Z,29.05
2022-12-24T04:42:04.317Z,27.55
2022-12-24T04:43:07.072Z,27.05
2022-12-24T04:44:10.033Z,24.52
2022-12-24T04:45:12.815Z,25.90
2022-12-24T04:46:18.587Z,30.95
2022-12-24T04:47:21.295Z,27.00
2022-12-24T04:48:24.127Z,25.05
2022-12-24T04:49:27.042Z,29.92
2022-12-24T04:50:29.890Z,26.20
2022-12-24T04:51:32.666Z,28.00
2022-12-24T04:52:35.524Z,23.40
2022-12-24T04:53:39.106Z,29.05
2022-12-24T04:54:41.794Z,24.60
2022-12-24T04:55:47.534Z,22.88
2022-12-24T04:56:50.271Z,23.30
2022-12-24T04:57:55.316Z,23.83
2022-12-24T04:59:00.035Z,28.77
2022-12-24T05:00:04.221Z,29.73
2022-12-24T05:01:08.755Z,25.02
2022-12-24T05:02:11.825Z,28.50
2022-12-24T05:03:14.811Z,23.27
2022-12-24T05:04:17.629Z,27.10
2022-12-24T05:05:20.597Z,28.73
2022-12-24T05:06:26.452Z,23.50
2022-12-24T05:07:29.177Z,27.63
2022-12-24T05:08:32.118Z,28.00
2022-12-24T05:09:34.917Z,25.63
2022-12-24T05:10:37.761Z,23.73
2022-12-24T05:11:40.547Z,27.73
2022-12-24T05:12:43.471Z,21.38
2022-12-24T05:13:48.148Z,25.15
2022-12-24T05:14:51.098Z,25.95
2022-12-24T05:15:54.291Z,24.40
2022-12-24T05:16:57.180Z,23.23
2022-12-24T05:18:00.172Z,22.52
2022-12-24T05:19:03.054Z,23.08
2022-12-24T05:20:06.726Z,24.15
2022-12-24T05:21:21.640Z,24.92
2022-12-24T05:22:43.107Z,26.48
2022-12-24T05:24:04.599Z,26.73
2022-12-24T05:25:26.179Z,22.70
2022-12-24T05:26:41.879Z,24.70
2022-12-24T05:27:50.918Z,23.00
2022-12-24T05:28:56.322Z,25.75
2022-12-24T05:29:59.148Z,22.23
2022-12-24T05:31:02.088Z,27.35
2022-12-24T05:32:05.087Z,25.55
2022-12-24T05:33:07.829Z,26.23
2022-12-24T05:34:11.114Z,29.08
2022-12-24T05:35:13.975Z,28.30
2022-12-24T05:36:17.208Z,30.55
2022-12-24T05:37:20.199Z,25.08
2022-12-24T05:38:22.971Z,24.70
2022-12-24T05:39:25.716Z,24.90
2022-12-24T05:40:28.529Z,26.25
2022-12-24T05:41:31.335Z,24.20
2022-12-24T05:42:34.128Z,26.42
2022-12-24T05:43:37.475Z,19.17
2022-12-24T05:44:40.273Z,23.25
2022-12-24T05:45:43.180Z,25.23
2022-12-24T05:46:46.264Z,20.80
2022-12-24T05:47:49.252Z,21.80
2022-12-24T05:48:53.151Z,22.23
2022-12-24T05:49:56.182Z,22.42
2022-12-24T05:50:58.914Z,22.67
2022-12-24T05:52:01.712Z,21.33
2022-12-24T05:53:04.593Z,28.48
2022-12-24T05:54:07.497Z,19.58
2022-12-24T05:55:10.585Z,24.00
2022-12-24T05:56:16.030Z,22.42
2022-12-24T05:57:19.033Z,22.70
2022-12-24T05:58:22.116Z,23.55
2022-12-24T05:59:24.931Z,24.33
2022-12-24T06:00:27.826Z,22.73
2022-12-24T06:01:30.727Z,21.00
2022-12-24T06:02:33.562Z,23.58
2022-12-24T06:03:37.307Z,22.23
2022-12-24T06:04:40.431Z,22.65
2022-12-24T06:05:43.268Z,23.38
2022-12-24T06:06:46.264Z,21.55
2022-12-24T06:07:49.098Z,21.70
2022-12-24T06:08:53.301Z,23.67
2022-12-24T06:09:56.171Z,19.13
2022-12-24T06:11:01.299Z,19.38
2022-12-24T06:12:04.336Z,21.15
2022-12-24T06:13:07.150Z,20.65
2022-12-24T06:14:10.009Z,22.08
2022-12-24T06:15:15.247Z,20.17
2022-12-24T06:16:20.778Z,19.95
2022-12-24T06:17:23.664Z,20.45
2022-12-24T06:18:26.848Z,19.23
2022-12-24T06:19:29.765Z,21.65
2022-12-24T06:20:32.457Z,20.13
2022-12-24T06:21:35.341Z,22.60
2022-12-24T06:22:38.091Z,20.73
2022-12-24T06:23:42.894Z,21.33
2022-12-24T06:24:45.643Z,18.92
2022-12-24T06:25:48.877Z,19.65
2022-12-24T06:26:51.621Z,19.58
2022-12-24T06:27:54.435Z,21.05
2022-12-24T06:28:57.351Z,23.90
2022-12-24T06:30:00.205Z,21.75
2022-12-24T06:31:04.082Z,20.95
2022-12-24T06:32:06.894Z,21.88
2022-12-24T06:33:09.646Z,22.48
2022-12-24T06:34:12.413Z,23.63
2022-12-24T06:35:15.180Z,19.38
2022-12-24T06:36:21.327Z,23.27
2022-12-24T06:37:24.140Z,22.77
2022-12-24T06:38:26.903Z,21.77
2022-12-24T06:39:29.736Z,20.92
2022-12-24T06:40:32.540Z,23.67
2022-12-24T06:41:35.296Z,23.33
2022-12-24T06:42:38.089Z,26.17
2022-12-24T06:43:45.778Z,21.92
2022-12-24T06:44:48.549Z,24.10
2022-12-24T06:45:51.420Z,21.85
2022-12-24T06:46:54.279Z,23.65
2022-12-24T06:47:57.146Z,23.77
2022-12-24T06:49:00.198Z,23.10
2022-12-24T06:50:03.141Z,23.23
2022-12-24T06:51:06.187Z,22.27
2022-12-24T06:52:09.056Z,21.55
2022-12-24T06:53:12.138Z,22.10
2022-12-24T06:54:14.974Z,23.30
2022-12-24T06:55:17.887Z,22.23
2022-12-24T06:56:21.371Z,26.17
2022-12-24T06:57:24.080Z,25.65
2022-12-24T06:58:27.025Z,22.92
2022-12-24T06:59:29.842Z,23.13
2022-12-24T07:00:32.687Z,24.05
2022-12-24T07:01:35.624Z,23.75
2022-12-24T07:02:42.557Z,22.10
2022-12-24T07:03:45.536Z,28.40
2022-12-24T07:04:48.358Z,27.92
2022-12-24T07:05:51.506Z,28.95
2022-12-24T07:06:54.290Z,26.63
2022-12-24T07:07:57.503Z,29.35
2022-12-24T07:09:00.279Z,27.95
2022-12-24T07:10:03.350Z,31.45
2022-12-24T07:11:06.104Z,31.55
2022-12-24T07:12:08.869Z,25.38
2022-12-24T07:13:11.739Z,27.15
2022-12-24T07:14:14.431Z,28.00
2022-12-24T07:15:17.397Z,26.90
2022-12-24T07:16:20.389Z,31.90
2022-12-24T07:17:23.592Z,27.92
2022-12-24T07:18:26.786Z,28.42
2022-12-24T07:19:29.626Z,25.92
2022-12-24T07:20:32.317Z,25.67
2022-12-24T07:21:35.041Z,29.63
2022-12-24T07:22:37.792Z,31.33
2022-12-24T07:23:40.707Z,28.50
2022-12-24T07:24:43.455Z,31.70
2022-12-24T07:25:46.392Z,34.97
2022-12-24T07:26:49.313Z,31.38
2022-12-24T07:27:52.116Z,32.33
2022-12-24T07:28:54.857Z,32.33
2022-12-24T07:29:57.662Z,33.17
2022-12-24T07:31:00.958Z,31.17
2022-12-24T07:32:04.092Z,30.00
2022-12-24T07:33:07.113Z,32.25
2022-12-24T07:34:10.106Z,26.17
2022-12-24T07:35:13.017Z,26.60
2022-12-24T07:36:20.924Z,32.92
2022-12-24T07:37:23.726Z,30.23
2022-12-24T07:38:26.458Z,25.00
2022-12-24T07:39:29.172Z,25.77
2022-12-24T07:40:34.557Z,28.20
2022-12-24T07:41:41.781Z,26.38
2022-12-24T07:42:45.053Z,30.77
2022-12-24T07:43:47.982Z,32.00
2022-12-24T07:44:50.876Z,28.98
2022-12-24T07:45:57.840Z,30.20
2022-12-24T07:47:00.752Z,31.08
2022-12-24T07:48:03.717Z,29.35
2022-12-24T07:49:06.538Z,29.20
2022-12-24T07:50:09.727Z,31.95
2022-12-24T07:51:12.459Z,29.92
2022-12-24T07:52:15.257Z,27.75
2022-12-24T07:53:18.239Z,27.02
2022-12-24T07:54:20.936Z,32.00
2022-12-24T07:55:23.694Z,27.35
2022-12-24T07:56:26.456Z,28.70
2022-12-24T07:57:29.232Z,33.05
2022-12-24T07:58:32.040Z,32.30
2022-12-24T07:59:34.790Z,28.05
2022-12-24T08:00:37.852Z,29.00
2022-12-24T08:01:40.960Z,31.75
2022-12-24T08:02:43.888Z,27.48
2022-12-24T08:03:46.856Z,28.05
2022-12-24T08:04:49.659Z,28.00
2022-12-24T08:05:55.578Z,28.52
2022-12-24T08:06:58.344Z,30.70
2022-12-24T08:08:01.289Z,29.60
2022-12-24T08:09:04.769Z,30.33
2022-12-24T08:10:08.132Z,28.48
2022-12-24T08:11:11.053Z,31.55
2022-12-24T08:12:14.494Z,34.80
2022-12-24T08:13:17.648Z,35.00
2022-12-24T08:14:20.395Z,32.90
2022-12-24T08:15:23.130Z,31.20
2022-12-24T08:16:26.153Z,30.58
2022-12-24T08:17:32.387Z,35.33
2022-12-24T08:18:35.440Z,28.70
2022-12-24T08:19:38.309Z,31.75
2022-12-24T08:20:41.641Z,31.05
2022-12-24T08:21:44.486Z,33.33
2022-12-24T08:22:47.512Z,34.67
2022-12-24T08:23:50.271Z,32.25
2022-12-24T08:24:52.995Z,35.50
2022-12-24T08:25:55.714Z,30.88
2022-12-24T08:26:58.633Z,30.25
2022-12-24T08:28:01.720Z,30.27
2022-12-24T08:29:05.439Z,37.17
2022-12-24T08:30:09.187Z,33.78
2022-12-24T08:31:11.914Z,30.92
2022-12-24T08:32:14.676Z,32.70
2022-12-24T08:33:17.916Z,31.10
2022-12-24T08:34:20.700Z,34.58
2022-12-24T08:35:23.643Z,34.28
2022-12-24T08:36:26.404Z,31.70
2022-12-24T08:37:29.161Z,29.75
2022-12-24T08:38:31.985Z,28.02
2022-12-24T08:39:34.640Z,29.77
2022-12-24T08:40:37.482Z,28.35
2022-12-24T08:41:40.281Z,28.80
2022-12-24T08:42:43.332Z,34.90
2022-12-24T08:43:46.307Z,29.33
2022-12-24T08:44:49.233Z,33.60
2022-12-24T08:45:52.530Z,33.53
2022-12-24T08:46:55.264Z,30.58
2022-12-24T08:48:00.402Z,28.63
2022-12-24T08:49:03.187Z,27.67
2022-12-24T08:50:07.021Z,30.90
2022-12-24T08:51:11.681Z,31.67
2022-12-24T08:52:14.428Z,23.65
2022-12-24T08:53:17.234Z,31.83
2022-12-24T08:54:20.034Z,36.22
2022-12-24T08:55:25.458Z,33.13
2022-12-24T08:56:28.257Z,37.85
2022-12-24T08:57:31.187Z,31.13
2022-12-24T08:58:34.003Z,30.77
2022-12-24T08:59:36.737Z,31.67
2022-12-24T09:00:39.584Z,29.13
2022-12-24T09:01:42.757Z,29.40
2022-12-24T09:02:45.913Z,32.15
2022-12-24T09:03:49.023Z,29.05
2022-12-24T09:04:51.857Z,29.48
2022-12-24T09:05:54.687Z,33.47
2022-12-24T09:06:57.490Z,31.83
2022-12-24T09:08:00.194Z,32.35
2022-12-24T09:09:04.176Z,30.27
2022-12-24T09:10:07.951Z,32.45
2022-12-24T09:11:15.170Z,31.33
2022-12-24T09:12:18.019Z,29.67
2022-12-24T09:13:20.799Z,32.70
2022-12-24T09:14:23.522Z,29.52
2022-12-24T09:15:26.281Z,31.20
2022-12-24T09:16:29.543Z,36.63
2022-12-24T09:17:32.337Z,30.63
2022-12-24T09:18:35.070Z,33.33
2022-12-24T09:19:38.119Z,26.52
2022-12-24T09:20:46.579Z,31.00
2022-12-24T09:21:50.518Z,33.15
2022-12-24T09:22:53.236Z,32.45
2022-12-24T09:23:56.020Z,31.42
2022-12-24T09:24:58.727Z,32.67
2022-12-24T09:26:06.038Z,28.95
2022-12-24T09:27:08.726Z,30.65
2022-12-24T09:28:11.428Z,26.25
2022-12-24T09:29:14.179Z,32.15
2022-12-24T09:30:16.984Z,29.48
2022-12-24T09:31:20.517Z,27.50
2022-12-24T09:32:23.444Z,31.02
2022-12-24T09:33:27.413Z,34.25
2022-12-24T09:34:30.915Z,31.13
2022-12-24T09:35:34.268Z,30.45
2022-12-24T09:36:37.189Z,31.67
2022-12-24T09:37:39.909Z,29.15
2022-12-24T09:38:42.756Z,34.20
2022-12-24T09:39:45.674Z,27.48
2022-12-24T09:40:49.985Z,28.35
2022-12-24T09:42:11.120Z,26.40
2022-12-24T09:43:19.993Z,27.60
2022-12-24T09:44:45.845Z,31.63
2022-12-24T09:46:15.005Z,31.02
2022-12-24T09:47:28.637Z,29.05
2022-12-24T09:48:34.487Z,27.00
2022-12-24T09:49:44.835Z,31.83
2022-12-24T09:51:02.638Z,25.60
2022-12-24T09:52:08.723Z,25.30
2022-12-24T09:53:20.880Z,29.13
2022-12-24T09:54:32.915Z,27.08
2022-12-24T09:55:44.908Z,27.65
2022-12-24T09:56:48.632Z,29.23
2022-12-24T09:57:53.752Z,27.08
2022-12-24T09:59:05.030Z,30.20
2022-12-24T10:00:21.576Z,29.40
2022-12-24T10:01:24.551Z,28.17
2022-12-24T10:02:27.570Z,27.70
2022-12-24T10:03:33.767Z,28.77
2022-12-24T10:04:36.792Z,33.67
2022-12-24T10:06:02.412Z,29.33
2022-12-24T10:07:25.442Z,28.30
2022-12-24T10:08:40.469Z,30.92
2022-12-24T10:10:18.464Z,30.02
2022-12-24T10:11:35.716Z,29.33
2022-12-24T10:13:00.228Z,32.15
2022-12-24T10:14:20.820Z,34.30
2022-12-24T10:16:02.673Z,31.80
2022-12-24T10:17:26.858Z,31.10
2022-12-24T10:18:52.396Z,31.70
2022-12-24T10:20:04.557Z,26.63
2022-12-24T10:21:16.287Z,29.63
2022-12-24T10:22:32.508Z,32.08
2022-12-24T10:23:50.311Z,32.95
2022-12-24T10:25:01.533Z,29.35
2022-12-24T10:26:10.421Z,29.50
2022-12-24T10:27:15.020Z,30.48
2022-12-24T10:28:20.279Z,32.78
2022-12-24T10:29:36.370Z,32.53
2022-12-24T10:30:39.547Z,36.03
2022-12-24T10:32:17.803Z,32.30
2022-12-24T10:33:35.633Z,31.88
2022-12-24T10:34:46.747Z,40.55
2022-12-24T10:35:53.800Z,41.15
2022-12-24T10:36:57.409Z,34.85
2022-12-24T10:38:00.267Z,30.67
2022-12-24T10:39:03.574Z,41.75
2022-12-24T10:40:07.163Z,40.13
2022-12-24T10:41:10.022Z,37.78
2022-12-24T10:42:14.046Z,31.60
2022-12-24T10:43:19.229Z,35.38
2022-12-24T10:44:23.931Z,31.92
2022-12-24T10:45:40.179Z,32.20
2022-12-24T10:46:43.280Z,29.38
2022-12-24T10:47:50.114Z,30.20
2022-12-24T10:48:58.793Z,29.42
2022-12-24T10:50:26.984Z,29.65
2022-12-24T10:51:50.629Z,26.05
2022-12-24T10:52:55.915Z,30.17
2022-12-24T10:54:06.831Z,33.20
2022-12-24T10:55:21.288Z,30.05
2022-12-24T10:56:24.048Z,25.67
2022-12-24T10:57:27.267Z,31.45
2022-12-24T10:58:30.997Z,32.78
2022-12-24T10:59:39.731Z,25.15
2022-12-24T11:00:42.869Z,32.58
2022-12-24T11:01:47.974Z,37.10
2022-12-24T11:03:25.842Z,35.58
2022-12-24T11:04:30.767Z,31.90
2022-12-24T11:05:36.321Z,29.50
2022-12-24T11:06:56.528Z,25.25
2022-12-24T11:08:20.325Z,33.80
2022-12-24T11:09:26.773Z,27.85
2022-12-24T11:10:29.974Z,32.38
2022-12-24T11:11:35.334Z,30.02
2022-12-24T11:12:40.946Z,27.83
2022-12-24T11:13:56.379Z,28.80
2022-12-24T11:15:07.467Z,28.75
2022-12-24T11:16:12.855Z,30.33
2022-12-24T11:17:22.950Z,33.92
2022-12-24T11:18:25.731Z,33.20
2022-12-24T11:19:36.175Z,26.38
2022-12-24T11:20:39.080Z,28.27
2022-12-24T11:21:42.125Z,30.65
2022-12-24T11:22:49.254Z,28.27
2022-12-24T11:23:54.882Z,29.20
2022-12-24T11:25:07.037Z,25.67
2022-12-24T11:26:10.375Z,25.42
2022-12-24T11:27:24.784Z,26.50
2022-12-24T11:28:29.084Z,24.73
2022-12-24T11:29:31.842Z,28.60
2022-12-24T11:30:35.361Z,30.17
2022-12-24T11:31:38.505Z,24.55
2022-12-24T11:33:11.707Z,28.60
2022-12-24T11:34:29.323Z,24.00
2022-12-24T11:35:34.088Z,22.98
2022-12-24T11:36:36.808Z,23.70
2022-12-24T11:37:39.528Z,26.20
2022-12-24T11:38:42.295Z,23.63
2022-12-24T11:39:49.904Z,25.35
2022-12-24T11:41:19.195Z,23.67
2022-12-24T11:42:33.809Z,29.25
2022-12-24T11:43:46.242Z,21.27
2022-12-24T11:44:49.965Z,20.98
2022-12-24T11:45:57.697Z,24.15
2022-12-24T11:47:00.444Z,23.20
2022-12-24T11:48:03.303Z,22.65
2022-12-24T11:49:12.305Z,27.15
2022-12-24T11:50:32.933Z,23.38
2022-12-24T11:51:36.290Z,25.15
2022-12-24T11:52:39.318Z,22.15
2022-12-24T11:53:51.748Z,25.85
2022-12-24T11:55:11.903Z,23.33
2022-12-24T11:56:46.348Z,26.77
2022-12-24T11:58:12.472Z,23.80
2022-12-24T11:59:19.679Z,24.35
2022-12-24T12:00:22.417Z,20.75
2022-12-24T12:01:37.070Z,26.35
2022-12-24T12:02:42.933Z,22.38
2022-12-24T12:03:53.225Z,27.55
2022-12-24T12:04:59.846Z,28.20
2022-12-24T12:06:04.667Z,23.17
2022-12-24T12:07:15.848Z,19.80
2022-12-24T12:08:20.710Z,25.05
2022-12-24T12:09:32.784Z,22.98
2022-12-24T12:10:38.670Z,25.05
2022-12-24T12:11:44.358Z,23.90
2022-12-24T12:13:12.938Z,20.50
2022-12-24T12:14:59.807Z,21.27
2022-12-24T12:16:14.803Z,21.35
2022-12-24T12:17:41.069Z,20.25
2022-12-24T12:18:52.588Z,22.70
2022-12-24T12:20:11.563Z,20.98
2022-12-24T12:21:19.586Z,29.25
2022-12-24T12:22:28.464Z,20.45
2022-12-24T12:23:42.935Z,22.77
2022-12-24T12:24:51.079Z,21.63
2022-12-24T12:25:57.787Z,24.33
2022-12-24T12:27:15.185Z,20.65
2022-12-24T12:28:41.797Z,22.05
2022-12-24T12:29:49.929Z,24.90
2022-12-24T12:31:19.859Z,22.25
2022-12-24T12:33:03.287Z,33.42
2022-12-24T12:34:22.252Z,22.48
2022-12-24T12:35:51.225Z,25.88
2022-12-24T12:37:26.181Z,26.13
2022-12-24T12:38:31.869Z,24.60
2022-12-24T12:39:36.189Z,21.90
2022-12-24T12:40:57.799Z,25.92
2022-12-24T12:42:12.187Z,27.75
2022-12-24T12:44:06.466Z,23.15
2022-12-24T12:45:35.797Z,23.58
2022-12-24T12:46:57.816Z,28.80
2022-12-24T12:48:11.828Z,24.58
2022-12-24T12:49:33.043Z,23.92
2022-12-24T12:50:40.951Z,23.15
2022-12-24T12:52:05.068Z,23.90
2022-12-24T12:53:32.599Z,22.02
2022-12-24T12:54:37.910Z,21.17
2022-12-24T12:56:13.181Z,19.48
2022-12-24T12:57:21.075Z,23.48
2022-12-24T12:58:34.945Z,21.00
2022-12-24T12:59:41.593Z,20.23
2022-12-24T13:00:47.176Z,26.38
2022-12-24T13:02:22.419Z,18.95
2022-12-24T13:04:01.361Z,19.52
2022-12-24T13:05:22.062Z,22.85
2022-12-24T13:06:44.821Z,14.25
2022-12-24T13:08:08.693Z,22.00
2022-12-24T13:09:27.943Z,16.75
2022-12-24T13:11:18.059Z,24.95
2022-12-24T13:12:45.751Z,21.90
2022-12-24T13:14:15.631Z,19.50
2022-12-24T13:15:49.552Z,18.95
2022-12-24T13:17:23.080Z,18.85
2022-12-24T13:18:50.591Z,22.58
2022-12-24T13:20:26.371Z,21.58
2022-12-24T13:21:30.837Z,19.83
2022-12-24T13:22:33.643Z,17.48
2022-12-24T13:23:36.524Z,20.88
2022-12-24T13:24:39.280Z,19.90
2022-12-24T13:25:44.323Z,17.08
2022-12-24T13:27:16.059Z,21.92
2022-12-24T13:28:33.690Z,23.17
2022-12-24T13:29:36.352Z,18.35
2022-12-24T13:30:40.632Z,24.25
2022-12-24T13:31:43.412Z,22.48
2022-12-24T13:32:53.600Z,22.60
2022-12-24T13:33:58.471Z,25.92
2022-12-24T13:35:04.282Z,22.15
2022-12-24T13:36:11.371Z,19.98
2022-12-24T13:37:27.576Z,20.73
2022-12-24T13:38:43.687Z,17.63
2022-12-24T13:40:10.460Z,19.52
2022-12-24T13:41:41.146Z,27.45
2022-12-24T13:42:59.355Z,21.02
2022-12-24T13:44:13.060Z,20.85
2022-12-24T13:45:31.130Z,21.00
2022-12-24T13:46:51.655Z,22.70
2022-12-24T13:47:54.992Z,21.92
2022-12-24T13:49:11.839Z,23.75
2022-12-24T13:50:39.484Z,22.42
2022-12-24T13:51:42.303Z,23.63
2022-12-24T13:52:52.542Z,23.05
2022-12-24T13:53:59.161Z,24.00
2022-12-24T13:55:14.791Z,24.63
2022-12-24T13:56:17.620Z,22.90
2022-12-24T13:57:39.743Z,29.48
2022-12-24T13:58:55.870Z,26.23
2022-12-24T14:00:27.316Z,17.25
2022-12-24T14:01:36.661Z,18.35
2022-12-24T14:03:05.970Z,17.20
2022-12-24T14:04:09.972Z,19.85
2022-12-24T14:05:43.429Z,15.95
2022-12-24T14:06:49.648Z,19.92
2022-12-24T14:07:53.816Z,20.40
2022-12-24T14:09:05.870Z,18.73
2022-12-24T14:10:20.721Z,16.60
2022-12-24T14:11:25.996Z,17.52
2022-12-24T14:12:34.565Z,16.92
2022-12-24T14:13:40.092Z,20.48
2022-12-24T14:14:43.033Z,19.23
2022-12-24T14:15:51.632Z,17.67
2022-12-24T14:16:57.529Z,22.63
2022-12-24T14:18:00.429Z,16.35
2022-12-24T14:19:10.498Z,17.83
2022-12-24T14:20:15.513Z,17.30
2022-12-24T14:21:22.868Z,22.17
2022-12-24T14:22:34.248Z,18.05
2022-12-24T14:23:48.953Z,16.15
2022-12-24T14:25:09.498Z,15.73
2022-12-24T14:26:18.273Z,15.65
2022-12-24T14:27:48.060Z,14.45
2022-12-24T14:29:01.248Z,19.02
2022-12-24T14:30:26.728Z,15.23
2022-12-24T14:31:29.570Z,14.80